Time;durP1;ratioP1;P1;durP2;ratioP2;P2;SDS_P1;SDS_P2;PMS_P1;PMS_P2;Temp;Humidity;BMP_temperature;BMP_pressure;BME280_temperature;BME280_humidity;BME280_pressure;Samples;Min_cycle;Max_cycle;Signal;HPM_P1;HPM_P2
2023/09/07 00:01:04;;;;;;;;;;;14.50;99.90;;;;;;5091970;28;20048;-58
2023/09/07 00:03:31;;;;;;;10.75;6.78;;;14.60;99.90;;;;;;5069928;28;19956;-58
2023/09/07 00:05:58;;;;;;;13.98;7.47;;;14.60;99.90;;;;;;5090532;28;20068;-57
2023/09/07 00:08:25;;;;;;;8.55;6.43;;;14.50;99.90;;;;;;5090137;28;20150;-55
2023/09/07 00:10:52;;;;;;;;;;;14.50;99.90;;;;;;5083317;28;20144;-57
2023/09/07 00:13:18;;;;;;;9.80;6.47;;;14.50;99.90;;;;;;5091154;28;19954;-57
2023/09/07 00:15:45;;;;;;;10.57;7.13;;;14.40;99.90;;;;;;5091256;28;20058;-55
2023/09/07 00:18:12;;;;;;;10.00;6.45;;;14.40;99.90;;;;;;5071957;28;20044;-57
2023/09/07 00:20:40;;;;;;;8.35;6.28;;;14.40;99.90;;;;;;5091348;28;20040;-55
2023/09/07 00:23:07;;;;;;;10.60;6.30;;;14.40;99.90;;;;;;5085887;28;20048;-57
2023/09/07 00:25:34;;;;;;;10.18;6.85;;;14.40;99.90;;;;;;5087659;28;20485;-56
2023/09/07 00:28:01;;;;;;;12.30;7.00;;;14.40;99.90;;;;;;5080977;28;20492;-56
2023/09/07 00:30:27;;;;;;;10.65;7.78;;;14.30;99.90;;;;;;5071813;28;20046;-56
2023/09/07 00:32:54;;;;;;;10.15;7.20;;;14.40;99.90;;;;;;5071118;28;20044;-58
2023/09/07 00:35:21;;;;;;;11.60;7.28;;;14.30;99.90;;;;;;5072627;28;20044;-57
2023/09/07 00:37:48;;;;;;;10.73;6.85;;;14.40;99.90;;;;;;5072851;28;20040;-59
2023/09/07 00:40:15;;;;;;;10.65;7.20;;;14.30;99.90;;;;;;5074068;28;20033;-60
2023/09/07 00:42:42;;;;;;;10.55;6.57;;;14.30;99.90;;;;;;5074681;28;20041;-59
2023/09/07 00:45:09;;;;;;;9.18;6.60;;;14.30;99.90;;;;;;5075183;28;20060;-60
2023/09/07 00:47:36;;;;;;;9.23;6.82;;;14.40;99.90;;;;;;5073056;28;20406;-61
2023/09/07 00:50:04;;;;;;;10.45;7.05;;;14.30;99.90;;;;;;5067813;28;20048;-58
2023/09/07 00:52:34;;;;;;;12.40;7.65;;;14.30;99.90;;;;;;5066354;28;20044;-58
2023/09/07 00:55:04;;;;;;;11.93;6.60;;;14.30;99.90;;;;;;5052089;28;20102;-55
2023/09/07 00:57:31;;;;;;;10.55;7.00;;;14.30;99.90;;;;;;5060408;28;20486;-57
2023/09/07 00:59:58;;;;;;;11.02;7.35;;;14.20;99.90;;;;;;5053019;28;20048;-57
2023/09/07 01:02:25;;;;;;;9.07;6.65;;;14.20;99.90;;;;;;5071465;28;20040;-57
2023/09/07 01:04:53;;;;;;;10.93;6.75;;;14.10;99.90;;;;;;5073227;28;20123;-59
2023/09/07 01:07:41;;;;;;;11.13;6.68;;;14.10;99.90;;;;;;5073336;28;20032;-58
2023/09/07 01:10:08;;;;;;;9.32;6.30;;;14.00;99.90;;;;;;5091095;28;20040;-59
2023/09/07 01:12:35;;;;;;;9.52;6.22;;;14.00;99.90;;;;;;5067380;28;20040;-59
2023/09/07 01:15:05;;;;;;;9.73;6.38;;;13.90;99.90;;;;;;5073563;28;20135;-56
2023/09/07 01:17:33;;;;;;;8.75;6.70;;;14.00;99.90;;;;;;5073603;28;20071;-58
2023/09/07 01:20:10;;;;;;;11.98;6.65;;;14.00;99.90;;;;;;5072222;28;20047;-57
2023/09/07 01:22:38;;;;;;;8.25;5.93;;;13.90;99.90;;;;;;5095233;28;20119;-59
2023/09/07 01:25:07;;;;;;;7.95;6.28;;;13.80;99.90;;;;;;5074619;28;20036;-58
2023/09/07 01:27:34;;;;;;;9.15;6.60;;;13.90;99.90;;;;;;5094699;28;20032;-58
2023/09/07 01:30:03;;;;;;;9.30;6.38;;;13.90;99.90;;;;;;5072995;28;20044;-58
2023/09/07 01:32:30;;;;;;;8.30;6.45;;;13.90;99.90;;;;;;5076551;28;20039;-60
2023/09/07 01:34:58;;;;;;;9.07;6.38;;;13.90;99.90;;;;;;5093728;28;20059;-58
2023/09/07 01:37:25;;;;;;;9.75;6.47;;;13.80;99.90;;;;;;5076582;28;20044;-59
2023/09/07 01:39:52;;;;;;;9.85;7.00;;;13.90;99.90;;;;;;5075127;28;20496;-58
2023/09/07 01:42:21;;;;;;;8.80;6.20;;;13.80;99.90;;;;;;5076598;28;20036;-59
2023/09/07 01:44:48;;;;;;;9.43;6.40;;;13.80;99.90;;;;;;5076101;28;20044;-58
2023/09/07 01:47:15;;;;;;;9.40;6.93;;;13.80;99.90;;;;;;5092070;28;20123;-59
2023/09/07 01:49:42;;;;;;;9.30;6.32;;;13.80;99.90;;;;;;5075704;28;20072;-59
2023/09/07 01:52:09;;;;;;;8.85;6.10;;;13.80;99.90;;;;;;5076017;28;20090;-59
2023/09/07 01:54:36;;;;;;;12.10;6.65;;;13.80;99.90;;;;;;5076031;28;20044;-58
2023/09/07 01:57:03;;;;;;;9.63;6.82;;;13.80;99.90;;;;;;5073659;28;20040;-57
2023/09/07 01:59:29;;;;;;;9.77;6.22;;;13.80;99.90;;;;;;5075615;28;20401;-57
2023/09/07 02:01:56;;;;;;;10.95;5.70;;;13.80;99.90;;;;;;5075867;28;20047;-59
2023/09/07 02:04:23;;;;;;;10.70;7.03;;;13.80;99.90;;;;;;5076052;28;20032;-60
2023/09/07 02:06:50;;;;;;;8.73;6.30;;;13.70;99.90;;;;;;5075281;28;20480;-60
2023/09/07 02:09:16;;;;;;;10.93;7.05;;;13.70;99.90;;;;;;5074615;28;20044;-59
2023/09/07 02:11:43;;;;;;;10.20;7.10;;;13.70;99.90;;;;;;5075746;28;20047;-59
2023/09/07 02:14:10;;;;;;;12.38;6.63;;;13.80;99.90;;;;;;5059045;28;20060;-58
2023/09/07 02:16:37;;;;;;;9.40;7.10;;;13.80;99.90;;;;;;5075257;28;20040;-59
2023/09/07 02:19:06;;;;;;;8.82;6.57;;;13.80;99.90;;;;;;5075309;28;20064;-60
2023/09/07 02:21:33;;;;;;;11.32;5.78;;;13.80;99.90;;;;;;5074104;28;20048;-59
2023/09/07 02:24:00;;;;;;;7.97;4.90;;;13.80;99.90;;;;;;5075453;28;20048;-57
2023/09/07 02:26:26;;;;;;;8.98;5.60;;;13.70;99.90;;;;;;5075227;28;20055;-57
2023/09/07 02:28:53;;;;;;;9.35;5.45;;;13.60;99.90;;;;;;5075533;28;20048;-60
2023/09/07 02:31:20;;;;;;;8.98;6.57;;;13.50;99.90;;;;;;5068409;28;20481;-60
2023/09/07 02:33:47;;;;;;;8.57;6.45;;;13.50;99.90;;;;;;5074768;28;20505;-60
2023/09/07 02:36:14;;;;;;;15.18;7.65;;;13.50;99.90;;;;;;5075057;28;20485;-59
2023/09/07 02:38:41;;;;;;;12.27;7.15;;;13.50;99.90;;;;;;5074515;28;20055;-59
2023/09/07 02:41:08;;;;;;;11.38;7.13;;;13.60;99.90;;;;;;5072762;28;20062;-60
2023/09/07 02:43:35;;;;;;;10.65;7.47;;;13.50;99.90;;;;;;5073627;28;20074;-59
2023/09/07 02:46:01;;;;;;;14.35;8.32;;;13.50;99.90;;;;;;5073943;28;20044;-59
2023/09/07 02:48:28;;;;;;;12.35;7.50;;;13.50;99.90;;;;;;5091605;28;20036;-60
2023/09/07 02:50:58;;;;;;;;;;;13.50;99.90;;;;;;5075009;28;20052;-56
2023/09/07 02:53:25;;;;;;;11.32;6.88;;;13.50;99.90;;;;;;5074220;28;19927;-60
2023/09/07 02:55:52;;;;;;;9.57;6.97;;;13.50;99.90;;;;;;5074477;28;20075;-59
2023/09/07 02:58:18;;;;;;;14.00;7.80;;;13.50;99.90;;;;;;5075186;28;20401;-59
2023/09/07 03:00:46;;;;;;;;;;;13.50;99.90;;;;;;5050257;28;20048;-59
2023/09/07 03:03:15;;;;;;;13.23;7.68;;;13.40;99.90;;;;;;5067254;28;19920;-60
2023/09/07 03:05:45;;;;;;;14.18;8.23;;;13.40;99.90;;;;;;5074249;28;20051;-60
2023/09/07 03:08:13;;;;;;;13.48;8.18;;;13.40;99.90;;;;;;5074219;28;20040;-59
2023/09/07 03:10:39;;;;;;;;;;;13.40;99.90;;;;;;5057035;28;20070;-59
2023/09/07 03:13:08;;;;;;;9.50;6.93;;;13.40;99.90;;;;;;5092871;28;19928;-59
2023/09/07 03:15:35;;;;;;;11.77;6.82;;;13.30;99.90;;;;;;5073653;28;20145;-59
2023/09/07 03:18:05;;;;;;;10.45;7.65;;;13.20;99.90;;;;;;5072352;28;20032;-56
2023/09/07 03:20:34;;;;;;;12.25;7.65;;;13.10;99.90;;;;;;5072461;28;20059;-58
2023/09/07 03:23:02;;;;;;;8.75;6.78;;;13.00;99.90;;;;;;5071084;28;20047;-56
2023/09/07 03:25:29;;;;;;;;;;;12.90;99.90;;;;;;5092720;28;20032;-58
2023/09/07 03:27:56;;;;;;;12.25;7.07;;;12.90;99.90;;;;;;5074208;28;20383;-59
2023/09/07 03:30:22;;;;;;;9.68;6.68;;;13.00;99.90;;;;;;5073850;28;20062;-58
2023/09/07 03:32:51;;;;;;;9.35;7.18;;;13.00;99.90;;;;;;5073348;28;20093;-57
2023/09/07 03:35:18;;;;;;;9.90;7.25;;;13.00;99.90;;;;;;5072908;28;20113;-58
2023/09/07 03:37:45;;;;;;;10.02;7.50;;;12.90;99.90;;;;;;5092509;28;20098;-59
2023/09/07 03:40:11;;;;;;;10.05;7.07;;;12.90;99.90;;;;;;5072818;28;20040;-58
2023/09/07 03:42:39;;;;;;;14.45;8.57;;;12.90;99.90;;;;;;5090288;28;20048;-60
2023/09/07 03:45:08;;;;;;;11.20;7.35;;;12.80;99.90;;;;;;5072768;28;20048;-59
2023/09/07 03:47:35;;;;;;;11.90;7.60;;;12.80;99.90;;;;;;5073776;28;20063;-60
2023/09/07 03:50:02;;;;;;;12.85;7.25;;;12.80;99.90;;;;;;5069662;28;20079;-57
2023/09/07 03:52:31;;;;;;;14.30;8.27;;;12.80;99.90;;;;;;5073901;28;20039;-60
2023/09/07 03:55:00;;;;;;;14.02;8.43;;;12.80;99.90;;;;;;5073556;28;20044;-58
2023/09/07 03:57:27;;;;;;;13.88;8.40;;;12.90;99.90;;;;;;5074089;28;20064;-60
2023/09/07 03:59:56;;;;;;;;;;;12.90;99.90;;;;;;5073067;28;20157;-58
2023/09/07 04:02:23;;;;;;;10.68;7.80;;;12.90;99.90;;;;;;5073638;28;19926;-58
2023/09/07 04:04:52;;;;;;;12.73;8.02;;;12.90;99.90;;;;;;5073628;28;20139;-59
2023/09/07 04:07:19;;;;;;;16.77;8.40;;;12.90;99.90;;;;;;5073032;28;20040;-56
2023/09/07 04:09:46;;;;;;;14.20;7.70;;;12.90;99.90;;;;;;5091693;28;20044;-59
2023/09/07 04:12:13;;;;;;;12.45;7.18;;;12.90;99.90;;;;;;5084757;28;20047;-60
2023/09/07 04:14:41;;;;;;;15.18;7.65;;;12.80;99.90;;;;;;5073583;28;20115;-55
2023/09/07 04:17:08;;;;;;;10.02;7.13;;;12.70;99.90;;;;;;5072120;28;20097;-59
2023/09/07 04:19:35;;;;;;;11.07;6.72;;;12.60;99.90;;;;;;5073115;28;20040;-58
2023/09/07 04:22:02;;;;;;;10.40;6.88;;;12.60;99.90;;;;;;5072773;28;20040;-59
2023/09/07 04:24:29;;;;;;;9.75;6.53;;;12.70;99.90;;;;;;5056579;28;20070;-59
2023/09/07 04:27:00;;;;;;;9.77;6.88;;;12.70;99.90;;;;;;5065745;28;20127;-58
2023/09/07 04:29:28;;;;;;;9.90;6.43;;;12.60;99.90;;;;;;5082325;28;20040;-59
2023/09/07 04:31:55;;;;;;;11.43;6.93;;;12.60;99.90;;;;;;5054159;28;20075;-57
2023/09/07 04:34:22;;;;;;;13.00;7.10;;;12.70;99.90;;;;;;5072857;28;20067;-59
2023/09/07 04:36:50;;;;;;;14.55;7.55;;;12.70;99.90;;;;;;5072653;28;20055;-58
2023/09/07 04:39:17;;;;;;;9.75;6.65;;;12.70;99.90;;;;;;5064102;28;20040;-60
2023/09/07 04:41:43;;;;;;;11.50;6.47;;;12.70;99.90;;;;;;5071919;28;20417;-60
2023/09/07 04:44:10;;;;;;;11.43;7.43;;;12.80;99.90;;;;;;5073226;28;20464;-60
2023/09/07 04:46:38;;;;;;;11.20;7.38;;;12.80;99.90;;;;;;5072312;28;20044;-60
2023/09/07 04:49:05;;;;;;;12.23;6.80;;;12.70;99.90;;;;;;5072452;28;20036;-60
2023/09/07 04:51:32;;;;;;;17.02;7.07;;;12.70;99.90;;;;;;5071873;28;20052;-60
2023/09/07 04:53:59;;;;;;;9.50;6.88;;;12.70;99.90;;;;;;5090479;28;20465;-59
2023/09/07 04:56:27;;;;;;;11.43;6.93;;;12.70;99.90;;;;;;5069693;28;20410;-58
2023/09/07 04:58:55;;;;;;;11.93;7.63;;;12.60;99.90;;;;;;5082719;28;20044;-57
2023/09/07 05:01:22;;;;;;;14.85;7.88;;;12.70;99.90;;;;;;5058196;28;20107;-59
2023/09/07 05:03:51;;;;;;;13.60;8.38;;;12.60;99.90;;;;;;5063312;28;20501;-60
2023/09/07 05:06:18;;;;;;;23.70;8.27;;;12.60;99.90;;;;;;5083277;28;20060;-59
2023/09/07 05:08:45;;;;;;;14.40;8.63;;;12.70;99.90;;;;;;5073128;28;20039;-60
2023/09/07 05:11:11;;;;;;;15.43;9.23;;;12.70;99.90;;;;;;5075991;28;20131;-59
2023/09/07 05:13:38;;;;;;;13.60;7.50;;;12.70;99.90;;;;;;5075784;28;20040;-57
2023/09/07 05:16:05;;;;;;;14.10;7.85;;;12.70;99.90;;;;;;5073082;28;20481;-59
2023/09/07 05:18:34;;;;;;;11.20;7.35;;;12.70;99.90;;;;;;5075228;28;20135;-60
2023/09/07 05:21:11;;;;;;;12.07;7.38;;;12.60;99.90;;;;;;5075856;28;20044;-59
2023/09/07 05:23:38;;;;;;;9.70;7.00;;;12.70;99.90;;;;;;5076633;28;20040;-59
2023/09/07 05:26:05;;;;;;;10.05;7.22;;;12.60;99.90;;;;;;5057873;28;20044;-60
2023/09/07 05:28:32;;;;;;;11.35;6.97;;;12.70;99.90;;;;;;5056482;28;20037;-59
2023/09/07 05:30:59;;;;;;;;;;;12.60;99.90;;;;;;5068471;28;20496;-59
2023/09/07 05:33:26;;;;;;;10.90;6.60;;;12.70;99.90;;;;;;5075251;28;19920;-60
2023/09/07 05:35:53;;;;;;;11.63;6.03;;;12.70;99.90;;;;;;5069409;28;20128;-60
2023/09/07 05:38:20;;;;;;;18.30;8.07;;;12.70;99.90;;;;;;5085832;28;20153;-60
2023/09/07 05:40:50;;;;;;;11.45;7.28;;;12.80;99.90;;;;;;5072367;28;20044;-59
2023/09/07 05:43:17;;;;;;;13.45;7.43;;;12.90;99.90;;;;;;5075295;28;20443;-59
2023/09/07 05:45:44;;;;;;;15.27;7.30;;;12.90;99.90;;;;;;5075788;28;20050;-60
2023/09/07 05:48:11;;;;;;;19.50;7.47;;;12.90;99.90;;;;;;5094227;28;20032;-59
2023/09/07 05:50:39;;;;;;;13.15;7.15;;;13.00;99.90;;;;;;5074302;28;20048;-59
2023/09/07 05:53:06;;;;;;;15.35;8.45;;;13.10;99.90;;;;;;5076057;28;20044;-60
2023/09/07 05:55:34;;;;;;;15.88;8.95;;;13.10;99.90;;;;;;5074998;28;20503;-60
2023/09/07 05:58:07;;;;;;;18.02;8.93;;;13.20;99.90;;;;;;5076083;28;20040;-58
2023/09/07 06:00:39;;;;;;;13.32;8.70;;;13.30;99.90;;;;;;5067325;28;20130;-58
2023/09/07 06:03:07;;;;;;;19.77;8.70;;;13.40;99.90;;;;;;5072189;28;20098;-58
2023/09/07 06:05:35;;;;;;;13.70;8.38;;;13.50;99.90;;;;;;5089194;28;20063;-58
2023/09/07 06:08:03;;;;;;;16.83;9.38;;;13.50;99.90;;;;;;5071939;28;20048;-60
2023/09/07 06:10:30;;;;;;;;;;;13.60;99.90;;;;;;5091467;28;20439;-59
2023/09/07 06:12:58;;;;;;;13.55;8.38;;;13.60;99.90;;;;;;5075692;28;19959;-60
2023/09/07 06:15:29;;;;;;;19.35;9.38;;;13.70;99.90;;;;;;5075121;28;20032;-59
2023/09/07 06:17:57;;;;;;;17.48;9.27;;;13.80;99.90;;;;;;5071645;28;20037;-60
2023/09/07 06:20:24;;;;;;;20.45;9.32;;;13.90;99.90;;;;;;5069170;28;20129;-60
2023/09/07 06:22:51;;;;;;;11.95;8.55;;;14.00;99.90;;;;;;5070988;28;20036;-59
2023/09/07 06:25:18;;;;;;;16.55;9.52;;;14.10;99.90;;;;;;5075311;28;20040;-59
2023/09/07 06:27:46;;;;;;;12.95;9.02;;;14.20;99.90;;;;;;5074303;28;20184;-60
2023/09/07 06:30:12;;;;;;;12.85;8.18;;;14.30;99.90;;;;;;5092937;28;20366;-57
2023/09/07 06:32:41;;;;;;;15.38;8.63;;;14.50;99.90;;;;;;5074662;28;20044;-60
2023/09/07 06:35:10;;;;;;;13.48;8.68;;;14.60;99.90;;;;;;5074691;28;20052;-59
2023/09/07 06:37:40;;;;;;;18.33;8.95;;;14.70;99.90;;;;;;5073505;28;20067;-59
2023/09/07 06:40:09;;;;;;;16.40;9.20;;;14.90;99.90;;;;;;5074525;28;20151;-60
2023/09/07 06:42:37;;;;;;;19.48;9.10;;;15.00;99.90;;;;;;5074506;28;20047;-60
2023/09/07 06:45:09;;;;;;;10.57;8.07;;;15.20;99.90;;;;;;5072604;28;20135;-58
2023/09/07 06:47:37;;;;;;;16.75;8.63;;;15.30;99.90;;;;;;5074795;28;20052;-60
2023/09/07 06:50:05;;;;;;;10.18;7.43;;;15.50;99.90;;;;;;5073737;28;20079;-59
2023/09/07 06:52:32;;;;;;;11.15;8.10;;;15.70;99.90;;;;;;5066699;28;20050;-58
2023/09/07 06:54:59;;;;;;;12.68;7.80;;;15.90;99.90;;;;;;5073844;28;20101;-60
2023/09/07 06:57:26;;;;;;;13.55;7.97;;;15.90;99.90;;;;;;5074645;28;20048;-60
2023/09/07 06:59:53;;;;;;;14.70;7.70;;;15.90;99.90;;;;;;5072635;28;20055;-58
2023/09/07 07:02:20;;;;;;;12.20;7.72;;;16.00;99.90;;;;;;5071615;28;20032;-60
2023/09/07 07:04:47;;;;;;;13.88;7.35;;;16.10;99.90;;;;;;5057169;28;20524;-60
2023/09/07 07:07:15;;;;;;;14.13;7.22;;;16.10;99.90;;;;;;5074012;28;20044;-58
2023/09/07 07:09:42;;;;;;;;;;;16.20;99.90;;;;;;5074394;28;20074;-60
2023/09/07 07:12:09;;;;;;;12.32;7.57;;;16.30;99.90;;;;;;5073674;28;19932;-56
2023/09/07 07:14:37;;;;;;;12.70;7.18;;;16.30;99.90;;;;;;5074149;28;20040;-59
2023/09/07 07:17:04;;;;;;;10.90;7.47;;;16.50;99.90;;;;;;5072849;28;20043;-58
2023/09/07 07:19:33;;;;;;;11.90;7.60;;;16.60;99.90;;;;;;5064195;28;20568;-59
2023/09/07 07:22:01;;;;;;;10.15;7.30;;;16.80;99.90;;;;;;5073984;28;20066;-58
2023/09/07 07:24:28;;;;;;;9.32;7.03;;;16.90;99.90;;;;;;5073244;28;20500;-60
2023/09/07 07:26:56;;;;;;;;;;;16.90;99.90;;;;;;5073274;28;20500;-59
2023/09/07 07:29:22;;;;;;;9.93;6.45;;;17.00;99.90;;;;;;5091651;28;19970;-60
2023/09/07 07:31:49;;;;;;;14.43;7.82;;;17.10;99.90;;;;;;5087398;28;20048;-58
2023/09/07 07:34:17;;;;;;;13.73;7.03;;;17.20;99.90;;;;;;5069028;28;20135;-60
2023/09/07 07:36:44;;;;;;;10.30;7.35;;;17.40;99.90;;;;;;5072452;28;20105;-59
2023/09/07 07:39:11;;;;;;;9.82;6.22;;;17.40;99.90;;;;;;5073282;28;20051;-56
2023/09/07 07:41:38;;;;;;;10.52;7.28;;;17.60;99.90;;;;;;5071416;28;20048;-59
2023/09/07 07:44:08;;;;;;;10.75;7.32;;;17.60;99.90;;;;;;5073051;28;20102;-60
2023/09/07 07:46:34;;;;;;;;;;;17.70;99.90;;;;;;5073360;28;20062;-57
2023/09/07 07:49:02;;;;;;;10.20;6.65;;;17.70;99.90;;;;;;5073134;28;19920;-59
2023/09/07 07:51:29;;;;;;;10.95;6.55;;;17.90;99.90;;;;;;5071058;28;20062;-58
2023/09/07 07:53:56;;;;;;;10.70;6.45;;;18.00;99.90;;;;;;5073494;28;20044;-60
2023/09/07 07:56:24;;;;;;;7.63;5.75;;;18.00;99.90;;;;;;5090584;28;20069;-60
2023/09/07 07:58:53;;;;;;;11.43;6.35;;;18.10;99.90;;;;;;5073227;28;20497;-57
2023/09/07 08:01:20;;;;;;;12.85;6.18;;;18.20;99.90;;;;;;5069046;28;20448;-58
2023/09/07 08:03:50;;;;;;;10.82;6.28;;;18.30;99.90;;;;;;5073316;28;20644;-60
2023/09/07 08:06:17;;;;;;;10.90;6.20;;;18.50;99.90;;;;;;5090453;28;20044;-59
2023/09/07 08:08:45;;;;;;;11.82;5.97;;;18.70;99.90;;;;;;5066488;28;20052;-60
2023/09/07 08:11:13;;;;;;;11.50;5.90;;;18.80;99.90;;;;;;5087748;28;20055;-59
2023/09/07 08:13:41;;;;;;;12.73;5.68;;;18.90;99.90;;;;;;5072843;28;20087;-61
2023/09/07 08:16:08;;;;;;;8.07;5.85;;;19.00;99.90;;;;;;5073490;28;20121;-59
2023/09/07 08:18:40;;;;;;;8.15;5.57;;;19.10;99.90;;;;;;5056649;28;20130;-60
2023/09/07 08:21:08;;;;;;;9.10;5.97;;;19.10;99.90;;;;;;5071553;28;20040;-60
2023/09/07 08:23:36;;;;;;;8.27;5.75;;;19.10;99.90;;;;;;5091149;28;20036;-60
2023/09/07 08:26:05;;;;;;;;;;;19.20;99.90;;;;;;5073037;28;20500;-60
2023/09/07 08:28:32;;;;;;;7.13;5.65;;;19.30;99.90;;;;;;5072929;28;19981;-60
2023/09/07 08:31:01;;;;;;;9.95;5.03;;;19.50;99.90;;;;;;5091332;28;20102;-60
2023/09/07 08:33:28;;;;;;;9.38;6.00;;;19.50;99.90;;;;;;5092746;28;20044;-60
2023/09/07 08:35:57;;;;;;;10.48;6.15;;;19.60;99.90;;;;;;5095224;28;20547;-60
2023/09/07 08:38:27;;;;;;;10.55;5.35;;;19.70;99.90;;;;;;5093940;28;20052;-59
2023/09/07 08:40:55;;;;;;;8.63;6.10;;;19.80;99.90;;;;;;5092266;28;20043;-60
2023/09/07 08:43:23;;;;;;;8.18;5.28;;;20.00;99.90;;;;;;5091310;28;20097;-59
2023/09/07 08:46:04;;;;;;;13.65;5.78;;;20.00;99.90;;;;;;5094561;28;20041;-59
2023/09/07 08:48:31;;;;;;;11.15;6.18;;;20.30;99.90;;;;;;5093936;28;20047;-61
2023/09/07 08:51:00;;;;;;;9.85;6.05;;;20.40;99.90;;;;;;5090597;28;20458;-60
2023/09/07 08:53:30;;;;;;;12.98;5.50;;;20.40;99.90;;;;;;5088174;28;20405;-60
2023/09/07 08:55:57;;;;;;;6.53;5.63;;;20.60;99.90;;;;;;5095227;28;20098;-60
2023/09/07 08:58:24;;;;;;;10.75;5.80;;;20.70;99.90;;;;;;5091264;28;20028;-61
2023/09/07 09:00:52;;;;;;;8.98;5.47;;;20.90;99.90;;;;;;5080262;28;20032;-59
2023/09/07 09:03:20;;;;;;;6.85;5.30;;;21.00;99.90;;;;;;5081616;28;20039;-61
2023/09/07 09:05:50;;;;;;;7.43;5.35;;;21.00;99.90;;;;;;5086822;28;20448;-60
2023/09/07 09:08:20;;;;;;;8.82;5.32;;;21.00;99.90;;;;;;5077383;28;20044;-60
2023/09/07 09:10:47;;;;;;;7.50;5.43;;;21.00;99.90;;;;;;5077955;28;20134;-59
2023/09/07 09:13:14;;;;;;;8.05;5.55;;;21.00;99.90;;;;;;5082089;28;20044;-59
2023/09/07 09:15:41;;;;;;;9.68;6.30;;;20.90;99.90;;;;;;5086181;28;20048;-58
2023/09/07 09:18:13;;;;;;;6.72;5.07;;;21.00;99.90;;;;;;5093565;28;20040;-61
2023/09/07 09:20:40;;;;;;;7.45;5.65;;;21.10;99.90;;;;;;5085754;28;20044;-59
2023/09/07 09:23:07;;;;;;;9.57;5.80;;;21.20;99.90;;;;;;5091867;28;20048;-60
2023/09/07 09:25:34;;;;;;;7.72;5.63;;;21.30;99.90;;;;;;5092910;28;20048;-60
2023/09/07 09:28:01;;;;;;;9.18;6.47;;;21.40;99.90;;;;;;5094396;28;20127;-60
2023/09/07 09:30:28;;;;;;;5.80;5.20;;;21.50;99.90;;;;;;5086016;28;20556;-61
2023/09/07 09:32:55;;;;;;;9.02;5.15;;;21.50;99.90;;;;;;5094038;28;20032;-60
2023/09/07 09:35:23;;;;;;;9.50;5.80;;;21.60;99.90;;;;;;5093282;28;20503;-60
2023/09/07 09:37:50;;;;;;;11.18;6.55;;;21.70;99.90;;;;;;5091995;28;20313;-60
2023/09/07 09:40:17;;;;;;;7.88;5.85;;;21.80;99.90;;;;;;5093919;28;20051;-60
2023/09/07 09:42:45;;;;;;;9.95;5.68;;;21.80;99.90;;;;;;5085051;28;20040;-60
2023/09/07 09:45:12;;;;;;;;;;;21.90;99.90;;;;;;5094349;28;20040;-60
2023/09/07 09:47:40;;;;;;;8.82;5.90;;;22.00;99.90;;;;;;5093506;28;20505;-60
2023/09/07 09:50:09;;;;;;;11.13;6.32;;;22.10;99.90;;;;;;5089445;28;20040;-59
2023/09/07 09:52:37;;;;;;;8.77;5.80;;;22.30;99.90;;;;;;5088540;28;20056;-61
2023/09/07 09:55:07;;;;;;;9.65;6.03;;;22.30;99.90;;;;;;5073411;28;20047;-60
2023/09/07 09:57:35;;;;;;;9.50;6.55;;;22.40;99.90;;;;;;5065388;28;20097;-59
2023/09/07 10:03:05;;;;;;;7.85;5.70;;;22.60;99.90;;;;;;5085708;28;20040;-60
2023/09/07 10:05:33;;;;;;;9.65;5.60;;;22.70;99.90;;;;;;5093096;28;20064;-60
2023/09/07 10:08:05;;;;;;;7.43;5.72;;;22.90;99.90;;;;;;5088561;28;20123;-61
2023/09/07 10:10:36;;;;;;;9.32;5.63;;;23.10;99.90;;;;;;5056935;28;20548;-60
2023/09/07 10:13:03;;;;;;;13.40;5.70;;;23.30;99.90;;;;;;5093459;28;20111;-60
2023/09/07 10:15:31;;;;;;;10.93;6.05;;;23.30;99.90;;;;;;5093303;28;20040;-60
2023/09/07 10:18:13;;;;;;;6.75;5.75;;;23.30;99.90;;;;;;5093069;28;20032;-59
2023/09/07 10:20:52;;;;;;;7.25;6.20;;;23.40;99.90;;;;;;5090525;28;20036;-60
2023/09/07 10:23:20;;;;;;;7.90;6.68;;;23.40;99.90;;;;;;5090175;28;20036;-61
2023/09/07 10:25:51;;;;;;;9.15;6.35;;;23.20;99.90;;;;;;5092983;28;20480;-59
2023/09/07 10:28:22;;;;;;;7.53;6.05;;;23.40;99.90;;;;;;5093386;28;20041;-61
2023/09/07 10:31:07;;;;;;;9.68;6.07;;;23.40;99.90;;;;;;5085047;28;20435;-60
2023/09/07 10:33:35;;;;;;;7.57;6.03;;;23.50;99.90;;;;;;5093018;28;20051;-61
2023/09/07 10:36:03;;;;;;;9.00;5.85;;;23.60;99.90;;;;;;5092943;28;20040;-60
2023/09/07 10:38:35;;;;;;;14.60;6.13;;;23.70;99.90;;;;;;5093064;28;20032;-61
2023/09/07 10:41:04;;;;;;;7.60;6.00;;;23.70;99.90;;;;;;5091633;28;20051;-61
2023/09/07 10:43:33;;;;;;;8.60;6.40;;;23.70;99.90;;;;;;5085253;28;20093;-61
2023/09/07 10:46:01;;;;;;;9.93;6.50;;;23.80;99.90;;;;;;5092871;28;20451;-61
2023/09/07 10:48:31;;;;;;;8.88;6.28;;;23.80;99.90;;;;;;5092923;28;20047;-60
2023/09/07 10:50:59;;;;;;;8.75;6.43;;;23.90;99.90;;;;;;5091495;28;20040;-60
2023/09/07 10:53:28;;;;;;;14.35;7.32;;;23.90;99.90;;;;;;5090098;28;20036;-60
2023/09/07 10:55:58;;;;;;;8.32;6.38;;;23.80;99.90;;;;;;5084418;28;20127;-61
2023/09/07 10:58:33;;;;;;;9.60;6.53;;;23.80;99.90;;;;;;5092661;28;20040;-60
2023/09/07 11:01:01;;;;;;;11.23;6.82;;;23.70;99.90;;;;;;5085214;28;20028;-59
2023/09/07 11:03:28;;;;;;;8.70;5.93;;;23.60;99.90;;;;;;5074450;28;20036;-60
2023/09/07 11:06:19;;;;;;;11.00;7.10;;;23.60;99.90;;;;;;5091840;28;20044;-59
2023/09/07 11:08:46;;;;;;;8.75;6.40;;;23.60;99.90;;;;;;5086424;28;20028;-58
2023/09/07 11:11:14;;;;;;;10.45;6.53;;;23.60;99.90;;;;;;5092076;28;20051;-62
2023/09/07 11:13:40;;;;;;;11.10;6.35;;;23.80;99.90;;;;;;5073412;28;20039;-61
2023/09/07 11:16:10;;;;;;;9.88;6.35;;;24.00;99.90;;;;;;5092444;28;20405;-61
2023/09/07 11:18:37;;;;;;;9.65;6.55;;;24.00;99.90;;;;;;5073476;28;20440;-61
2023/09/07 11:21:04;;;;;;;11.30;6.47;;;24.00;99.90;;;;;;5090691;28;20052;-62
2023/09/07 11:23:37;;;;;;;7.85;6.13;;;24.00;99.90;;;;;;5092446;28;20442;-61
2023/09/07 11:26:05;;;;;;;11.07;7.20;;;23.90;99.90;;;;;;5091818;28;20115;-61
2023/09/07 11:28:32;;;;;;;11.70;7.90;;;23.90;99.90;;;;;;5092055;28;20036;-60
2023/09/07 11:31:00;;;;;;;9.40;7.18;;;24.00;99.90;;;;;;5081166;28;20050;-61
2023/09/07 11:33:27;;;;;;;11.95;8.43;;;24.00;99.90;;;;;;5091659;28;20485;-61
2023/09/07 11:35:56;;;;;;;11.57;8.20;;;24.00;99.90;;;;;;5091334;28;20032;-59
2023/09/07 11:38:28;;;;;;;10.13;8.00;;;24.10;99.90;;;;;;5090425;28;20062;-60
2023/09/07 11:40:54;;;;;;;12.13;8.23;;;24.20;99.90;;;;;;5091727;28;20036;-61
2023/09/07 11:43:22;;;;;;;10.45;7.80;;;24.20;99.90;;;;;;5085377;28;20051;-61
2023/09/07 11:45:50;;;;;;;9.73;7.93;;;24.20;99.90;;;;;;5083651;28;20036;-60
2023/09/07 11:48:17;;;;;;;12.82;7.60;;;24.20;99.90;;;;;;5091453;28;20032;-61
2023/09/07 11:50:43;;;;;;;11.40;7.28;;;24.20;99.90;;;;;;5066028;28;20126;-60
2023/09/07 11:53:10;;;;;;;12.38;7.82;;;24.20;99.90;;;;;;5086296;28;20046;-59
2023/09/07 11:55:37;;;;;;;7.80;6.97;;;24.10;99.90;;;;;;5088630;28;20058;-60
2023/09/07 11:58:04;;;;;;;7.68;6.57;;;24.10;99.90;;;;;;5091087;28;20405;-59
2023/09/07 12:00:31;;;;;;;17.05;7.28;;;24.10;99.90;;;;;;5091200;28;20405;-61
2023/09/07 12:02:59;;;;;;;8.32;6.60;;;24.10;99.90;;;;;;5087338;28;20051;-61
2023/09/07 12:05:26;;;;;;;7.63;6.55;;;24.10;99.90;;;;;;5090856;28;20393;-60
2023/09/07 12:07:53;;;;;;;;;;;24.10;99.90;;;;;;5091954;28;20059;-60
2023/09/07 12:10:20;;;;;;;12.50;6.97;;;24.20;99.90;;;;;;5085984;28;19924;-61
2023/09/07 12:12:47;;;;;;;12.18;6.85;;;24.30;99.90;;;;;;5085159;28;20032;-60
2023/09/07 12:15:14;;;;;;;9.38;6.18;;;24.40;99.90;;;;;;5091130;28;20130;-61
2023/09/07 12:17:40;;;;;;;8.73;6.22;;;24.40;99.90;;;;;;5091135;28;20043;-61
2023/09/07 12:20:10;;;;;;;;;;;24.40;99.90;;;;;;5091378;28;20036;-61
2023/09/07 12:22:37;;;;;;;9.02;6.78;;;24.40;99.90;;;;;;5090146;28;19926;-61
2023/09/07 12:25:08;;;;;;;;;;;24.50;99.90;;;;;;5085694;28;20416;-60
2023/09/07 12:27:46;;;;;;;8.43;6.00;;;24.50;99.90;;;;;;5091110;28;19924;-60
2023/09/07 12:30:20;;;;;;;8.00;5.75;;;24.50;99.90;;;;;;5090665;28;20032;-61
2023/09/07 12:32:47;;;;;;;10.32;5.43;;;24.50;99.90;;;;;;5089936;28;20303;-60
2023/09/07 12:35:14;;;;;;;;;;;24.40;99.90;;;;;;5086488;28;20093;-61
2023/09/07 12:37:42;;;;;;;6.43;5.82;;;24.40;99.90;;;;;;5090946;28;20013;-61
2023/09/07 12:40:12;;;;;;;9.50;5.88;;;24.30;99.90;;;;;;5090723;28;20040;-58
2023/09/07 12:42:41;;;;;;;10.30;6.10;;;24.40;99.90;;;;;;5089432;28;20040;-60
2023/09/07 12:45:10;;;;;;;9.07;5.70;;;24.50;99.90;;;;;;5090760;28;20032;-61
2023/09/07 12:47:38;;;;;;;8.82;5.95;;;24.50;99.90;;;;;;5090313;28;20063;-59
2023/09/07 12:50:06;;;;;;;9.57;6.10;;;24.50;99.90;;;;;;5086832;28;20033;-61
2023/09/07 12:52:36;;;;;;;10.38;5.57;;;24.60;99.90;;;;;;5090937;28;20496;-59